Time;durP1;ratioP1;P1;durP2;ratioP2;P2;SDS_P1;SDS_P2;PMS_P1;PMS_P2;Temp;Humidity;BMP_temperature;BMP_pressure;BME280_temperature;BME280_humidity;BME280_pressure;Samples;Min_cycle;Max_cycle;Signal;HPM_P1;HPM_P2
2023/02/13 00:00:24;;;;;;;22.77;11.00;;;;;;;7.03;100.00;102934.22;5189383;28;20025;-76
2023/02/13 00:02:54;;;;;;;24.92;9.98;;;;;;;7.13;100.00;102930.91;5189465;28;20073;-73
2023/02/13 00:05:24;;;;;;;21.48;10.55;;;;;;;7.07;100.00;102935.16;5186165;28;20259;-73
2023/02/13 00:07:55;;;;;;;22.25;10.23;;;;;;;7.05;100.00;102935.13;5182859;28;20083;-74
2023/02/13 00:10:25;;;;;;;21.38;9.90;;;;;;;7.09;100.00;102938.66;5187622;28;20117;-75
2023/02/13 00:12:55;;;;;;;19.95;10.18;;;;;;;7.15;100.00;102939.66;5189048;28;20499;-76
2023/02/13 00:15:26;;;;;;;24.42;10.40;;;;;;;7.12;100.00;102933.50;5183678;28;20025;-76
2023/02/13 00:17:56;;;;;;;19.55;9.70;;;;;;;7.08;100.00;102935.16;5182993;28;20026;-74
2023/02/13 00:20:26;;;;;;;24.88;10.82;;;;;;;7.24;100.00;102934.56;5187707;28;20029;-74
2023/02/13 00:22:58;;;;;;;23.38;10.40;;;;;;;7.33;100.00;102929.53;5187582;28;20361;-76
2023/02/13 00:25:28;;;;;;;22.70;10.77;;;;;;;7.16;100.00;102936.19;5183307;28;20061;-73
2023/02/13 00:27:58;;;;;;;19.00;9.85;;;;;;;7.11;100.00;102936.97;5187208;28;20149;-76
2023/02/13 00:30:29;;;;;;;22.30;10.35;;;;;;;7.10;100.00;102935.22;5184159;28;20060;-75
2023/02/13 00:32:59;;;;;;;21.55;10.07;;;;;;;7.38;100.00;102933.06;5187843;28;20083;-73
2023/02/13 00:35:30;;;;;;;23.73;10.15;;;;;;;7.29;100.00;102928.59;5183630;28;20036;-74
2023/02/13 00:38:00;;;;;;;19.00;9.30;;;;;;;7.18;100.00;102928.41;5185467;28;20052;-73
2023/02/13 00:40:31;;;;;;;19.23;10.15;;;;;;;7.35;100.00;102925.22;5185829;28;20034;-73
2023/02/13 00:43:02;;;;;;;23.63;10.38;;;;;;;7.10;100.00;102928.28;5180484;28;20040;-74
2023/02/13 00:45:32;;;;;;;20.67;10.15;;;;;;;7.02;100.00;102916.00;5177373;28;20032;-75
2023/02/13 00:48:03;;;;;;;19.42;9.48;;;;;;;7.02;100.00;102926.41;5180821;28;20041;-74
2023/02/13 00:50:33;;;;;;;19.35;9.32;;;;;;;7.07;100.00;102930.81;5180288;28;20040;-72
2023/02/13 00:53:03;;;;;;;21.85;10.30;;;;;;;7.30;100.00;102932.94;5180532;28;20485;-72
2023/02/13 00:55:34;;;;;;;19.85;10.20;;;;;;;7.15;100.00;102928.34;5183627;28;20027;-72
2023/02/13 00:58:04;;;;;;;18.80;9.07;;;;;;;7.16;100.00;102924.91;5184966;28;20165;-75
2023/02/13 01:00:35;;;;;;;21.45;9.27;;;;;;;7.08;100.00;102931.72;5186586;28;20025;-74
2023/02/13 01:03:06;;;;;;;18.58;9.27;;;;;;;7.20;100.00;102929.28;5191925;28;20030;-75
2023/02/13 01:05:36;;;;;;;20.75;9.50;;;;;;;7.10;100.00;102924.81;5186016;28;20098;-73
2023/02/13 01:08:07;;;;;;;23.25;9.88;;;;;;;6.97;100.00;102930.66;5169415;28;20480;-76
2023/02/13 01:10:39;;;;;;;19.05;9.82;;;;;;;6.98;100.00;102924.59;5183924;28;20045;-74
2023/02/13 01:13:10;;;;;;;19.83;9.93;;;;;;;6.95;100.00;102922.81;5188181;28;20065;-75
2023/02/13 01:15:40;;;;;;;22.95;9.88;;;;;;;7.10;100.00;102924.81;5182542;28;20046;-73
2023/02/13 01:18:15;;;;;;;21.00;9.93;;;;;;;7.18;100.00;102933.59;5185967;28;20029;-76
2023/02/13 01:20:58;;;;;;;16.50;7.35;;;;;;;7.13;100.00;102925.72;5189794;28;20037;-74
2023/02/13 01:23:31;;;;;;;20.63;10.25;;;;;;;7.13;100.00;102917.91;5182415;28;20120;-72
2023/02/13 01:26:07;;;;;;;24.50;10.70;;;;;;;7.29;100.00;102909.50;5185187;28;20045;-75
2023/02/13 01:28:37;;;;;;;19.98;10.13;;;;;;;7.31;100.00;102915.59;5178182;28;20282;-73
2023/02/13 01:31:07;;;;;;;21.23;9.63;;;;;;;7.03;100.00;102912.53;5189707;28;20529;-77
2023/02/13 01:33:38;;;;;;;20.73;9.93;;;;;;;7.04;100.00;102903.88;5187818;28;20518;-73
2023/02/13 01:36:10;;;;;;;20.52;9.50;;;;;;;7.06;100.00;102902.19;5185277;28;20488;-75
2023/02/13 01:38:41;;;;;;;21.90;10.50;;;;;;;6.93;100.00;102908.06;5187181;28;20025;-74
2023/02/13 01:41:14;;;;;;;19.83;10.05;;;;;;;6.80;100.00;102908.69;5184081;28;20032;-77
2023/02/13 01:43:53;;;;;;;20.45;9.88;;;;;;;6.81;100.00;102897.47;5187729;28;20600;-74
2023/02/13 01:46:37;;;;;;;23.33;10.38;;;;;;;6.89;100.00;102899.34;5175656;28;20054;-75
2023/02/13 01:49:17;;;;;;;19.95;9.68;;;;;;;7.05;100.00;102895.25;5174767;28;20196;-74
2023/02/13 01:51:50;;;;;;;21.48;9.10;;;;;;;7.07;100.00;102897.03;5186769;28;20030;-77
2023/02/13 01:54:29;;;;;;;19.45;9.52;;;;;;;6.86;100.00;102886.28;5177941;28;20060;-73
2023/02/13 01:57:08;;;;;;;20.20;9.60;;;;;;;6.78;100.00;102889.63;5185197;28;20033;-75
2023/02/13 01:59:55;;;;;;;20.55;8.80;;;;;;;7.03;100.00;102889.16;5184404;28;20763;-74
2023/02/13 02:02:28;;;;;;;23.35;10.63;;;;;;;6.95;100.00;102891.63;5185783;28;20131;-75
2023/02/13 02:05:00;;;;;;;22.92;10.38;;;;;;;6.86;100.00;102885.41;5182206;28;20487;-75
2023/02/13 02:07:31;;;;;;;23.63;10.00;;;;;;;6.80;100.00;102885.31;5185797;28;20065;-75
2023/02/13 02:10:07;;;;;;;19.13;9.32;;;;;;;6.79;100.00;102883.56;5185109;28;20053;-75
2023/02/13 02:12:49;;;;;;;24.65;10.65;;;;;;;6.71;100.00;102887.75;5182180;28;20099;-74
2023/02/13 02:15:20;;;;;;;28.02;10.82;;;;;;;6.74;100.00;102877.44;5188122;28;20034;-73
2023/02/13 02:17:50;;;;;;;26.98;11.70;;;;;;;6.75;100.00;102881.78;5196315;22;20028;-72
2023/02/13 02:20:57;;;;;;;22.25;10.07;;;;;;;6.87;100.00;102877.63;5232759;28;20067;-72
2023/02/13 02:23:47;;;;;;;20.15;10.30;;;;;;;6.87;100.00;102884.53;5240296;28;20033;-72
2023/02/13 02:26:53;;;;;;;23.52;11.18;;;;;;;6.76;100.00;102881.78;5242939;28;20470;-71
2023/02/13 02:29:48;;;;;;;19.90;10.20;;;;;;;6.84;100.00;102887.09;5231727;28;20029;-72
2023/02/13 02:32:49;;;;;;;23.80;10.80;;;;;;;6.95;100.00;102877.75;5242243;28;20520;-72
2023/02/13 02:35:42;;;;;;;24.08;10.25;;;;;;;6.86;100.00;102883.69;5230679;28;20406;-72
2023/02/13 02:38:37;;;;;;;23.50;10.63;;;;;;;6.79;100.00;102887.03;5222190;28;20461;-71
2023/02/13 02:41:41;;;;;;;28.40;13.45;;;;;;;6.73;100.00;102886.06;5237500;28;20443;-72
2023/02/13 02:44:25;;;;;;;24.42;10.45;;;;;;;6.77;100.00;102882.66;5246102;28;20020;-71
2023/02/13 02:50:07;;;;;;;22.13;10.40;;;;;;;6.85;100.00;102870.66;5245738;28;20031;-72
2023/02/13 02:52:46;;;;;;;21.95;10.02;;;;;;;6.97;100.00;102876.91;5235604;28;20111;-71
2023/02/13 02:55:27;;;;;;;20.83;9.43;;;;;;;6.91;100.00;102870.78;5235880;28;20021;-72
2023/02/13 03:06:50;;;;;;;23.23;9.02;;;;;;;6.97;100.00;102850.06;5212155;28;20485;-72
2023/02/13 03:15:27;;;;;;;20.85;8.43;;;;;;;6.83;100.00;102867.16;5243110;28;20055;-73
2023/02/13 03:23:52;;;;;;;;;;;;;;;6.89;100.00;102868.13;5236527;28;20182;-71
2023/02/13 03:26:49;;;;;;;21.02;7.85;;;;;;;6.84;100.00;102858.50;5233827;28;19916;-71
2023/02/13 03:32:29;;;;;;;18.17;8.73;;;;;;;6.65;100.00;102872.06;5234552;28;20036;-72
2023/02/13 03:38:31;;;;;;;21.20;9.77;;;;;;;6.59;100.00;102861.56;5204799;28;20048;-71
2023/02/13 03:41:19;;;;;;;25.20;9.35;;;;;;;6.80;100.00;102867.97;5236244;28;20043;-71
2023/02/13 03:44:06;;;;;;;19.33;9.38;;;;;;;6.91;100.00;102865.59;5232981;28;20021;-71
2023/02/13 03:46:41;;;;;;;20.38;8.60;;;;;;;6.92;100.00;102862.97;5243343;28;20083;-71
2023/02/13 03:52:17;;;;;;;21.98;8.60;;;;;;;6.84;100.00;102859.41;5237133;28;20110;-71
2023/02/13 04:00:39;;;;;;;19.83;9.15;;;;;;;6.86;100.00;102872.41;5237416;28;20035;-72
2023/02/13 04:03:18;;;;;;;18.02;8.82;;;;;;;6.85;100.00;102875.84;5245064;28;20029;-72
2023/02/13 04:05:55;;;;;;;20.38;8.95;;;;;;;6.77;100.00;102875.72;5234968;28;20047;-72
2023/02/13 04:08:25;;;;;;;23.05;9.88;;;;;;;6.78;100.00;102871.41;5242386;28;20028;-72
2023/02/13 04:11:07;;;;;;;25.77;12.15;;;;;;;6.77;100.00;102872.28;5244162;28;20035;-72
2023/02/13 04:13:45;;;;;;;23.08;8.98;;;;;;;6.73;100.00;102878.28;5203152;28;20184;-72
2023/02/13 04:16:39;;;;;;;20.70;8.70;;;;;;;6.76;100.00;102875.72;5235846;28;20528;-73
2023/02/13 04:19:10;;;;;;;22.73;8.98;;;;;;;6.83;100.00;102867.16;5224493;28;20029;-73
2023/02/13 04:21:41;;;;;;;22.40;10.02;;;;;;;6.89;100.00;102877.66;5227443;28;20032;-72
2023/02/13 04:24:11;;;;;;;23.20;10.00;;;;;;;6.92;100.00;102869.94;5230242;28;20020;-72
2023/02/13 04:26:44;;;;;;;20.40;8.63;;;;;;;6.91;100.00;102870.78;5228183;28;20501;-72
2023/02/13 04:29:14;;;;;;;19.98;8.75;;;;;;;6.81;100.00;102871.47;5230290;28;20223;-72
2023/02/13 04:31:44;;;;;;;22.25;9.38;;;;;;;6.72;100.00;102864.38;5239880;28;20028;-72
2023/02/13 04:34:15;;;;;;;18.80;8.77;;;;;;;6.89;100.00;102862.06;5244173;28;20099;-73
2023/02/13 04:36:45;;;;;;;25.15;9.48;;;;;;;6.87;100.00;102864.66;5243379;28;20032;-72
2023/02/13 04:39:15;;;;;;;25.52;10.32;;;;;;;6.87;100.00;102855.97;5244752;28;20032;-72
2023/02/13 04:41:46;;;;;;;23.55;9.50;;;;;;;6.83;100.00;102861.97;5244334;28;20051;-72
2023/02/13 04:44:16;;;;;;;21.83;9.32;;;;;;;6.77;100.00;102864.47;5244401;28;20393;-72
2023/02/13 04:46:46;;;;;;;18.88;8.30;;;;;;;6.81;100.00;102853.28;5244516;28;20032;-72
2023/02/13 04:49:17;;;;;;;21.48;8.70;;;;;;;6.65;100.00;102853.88;5238801;28;20025;-72
2023/02/13 04:51:47;;;;;;;20.75;9.00;;;;;;;6.68;100.00;102853.91;5226875;28;20120;-72
2023/02/13 04:54:17;;;;;;;20.70;8.85;;;;;;;6.53;100.00;102854.53;5230840;28;20467;-72
2023/02/13 04:56:47;;;;;;;20.42;8.88;;;;;;;6.53;100.00;102859.75;5236502;28;20286;-72
2023/02/13 04:59:18;;;;;;;20.95;9.00;;;;;;;6.49;100.00;102849.25;5243833;28;20056;-72
2023/02/13 05:01:48;;;;;;;27.15;9.93;;;;;;;6.67;100.00;102844.38;5229465;28;20048;-72
2023/02/13 05:04:18;;;;;;;22.77;9.20;;;;;;;6.77;100.00;102836.75;5222486;28;20107;-71
2023/02/13 05:06:48;;;;;;;22.65;9.48;;;;;;;6.80;100.00;102842.00;5227981;28;20024;-72
2023/02/13 05:09:19;;;;;;;27.17;9.77;;;;;;;6.81;100.00;102848.97;5236908;28;20103;-71
2023/02/13 05:11:51;;;;;;;18.10;8.82;;;;;;;6.69;100.00;102848.75;5243962;28;20036;-71
2023/02/13 05:14:22;;;;;;;22.02;8.85;;;;;;;6.55;100.00;102851.94;5243601;28;20039;-72
2023/02/13 05:16:52;;;;;;;21.70;9.20;;;;;;;6.57;100.00;102855.47;5243446;28;20037;-71
2023/02/13 05:19:22;;;;;;;23.63;9.15;;;;;;;6.62;100.00;102866.81;5232425;28;20044;-72
2023/02/13 05:24:41;;;;;;;23.00;9.48;;;;;;;6.56;100.00;102861.53;5227344;28;20082;-72
2023/02/13 05:27:12;;;;;;;21.08;9.02;;;;;;;6.57;100.00;102863.28;5226861;28;20033;-71
2023/02/13 05:29:42;;;;;;;23.98;9.73;;;;;;;6.56;100.00;102862.38;5231625;28;20039;-71
2023/02/13 05:32:12;;;;;;;23.23;9.50;;;;;;;6.54;100.00;102868.38;5243828;28;20024;-72
2023/02/13 05:34:42;;;;;;;20.83;9.07;;;;;;;6.67;100.00;102865.16;5239168;28;20021;-72
2023/02/13 05:37:13;;;;;;;21.92;8.75;;;;;;;6.56;100.00;102859.78;5234637;28;20033;-70
2023/02/13 05:39:43;;;;;;;23.65;10.82;;;;;;;6.49;100.00;102867.44;5242863;28;20478;-72
2023/02/13 05:42:13;;;;;;;24.60;10.50;;;;;;;6.51;100.00;102863.16;5243541;28;20044;-72
2023/02/13 05:44:43;;;;;;;22.63;9.20;;;;;;;6.48;100.00;102865.69;5225951;28;20108;-71
2023/02/13 05:47:14;;;;;;;27.67;9.27;;;;;;;6.51;100.00;102863.16;5225710;28;20048;-71
2023/02/13 05:49:44;;;;;;;20.15;8.18;;;;;;;6.64;100.00;102865.13;5223222;28;20526;-72
2023/02/13 05:52:14;;;;;;;23.45;8.48;;;;;;;6.48;100.00;102857.91;5222854;28;20044;-71
2023/02/13 05:54:44;;;;;;;18.95;8.52;;;;;;;6.44;100.00;102854.38;5219016;28;20104;-71
2023/02/13 05:57:15;;;;;;;20.63;9.00;;;;;;;6.45;100.00;102855.25;5230413;28;20065;-72
2023/02/13 05:59:45;;;;;;;19.25;8.48;;;;;;;6.48;100.00;102860.50;5235713;28;20040;-71
2023/02/13 06:02:15;;;;;;;15.82;7.80;;;;;;;6.47;100.00;102863.94;5237144;28;20057;-72
2023/02/13 06:04:46;;;;;;;18.48;8.23;;;;;;;6.46;100.00;102870.84;5226566;28;20448;-70
2023/02/13 06:07:16;;;;;;;20.98;8.75;;;;;;;6.44;100.00;102866.50;5220881;28;20263;-72
2023/02/13 06:09:46;;;;;;;22.05;9.00;;;;;;;6.42;100.00;102863.84;5233831;28;20025;-71
2023/02/13 06:12:17;;;;;;;20.10;8.85;;;;;;;6.57;100.00;102871.06;5233795;28;20107;-70
2023/02/13 06:14:47;;;;;;;20.77;8.50;;;;;;;6.56;100.00;102867.59;5230788;28;20047;-71
2023/02/13 06:17:17;;;;;;;21.77;9.30;;;;;;;6.47;100.00;102863.94;5238096;28;20301;-72
2023/02/13 06:19:47;;;;;;;18.42;8.13;;;;;;;6.53;100.00;102867.53;5226844;28;20029;-71
2023/02/13 06:22:18;;;;;;;18.95;7.85;;;;;;;6.62;100.00;102862.47;5227165;28;20497;-72
2023/02/13 06:24:48;;;;;;;18.50;7.72;;;;;;;6.67;100.00;102862.56;5236600;28;20017;-73
2023/02/13 06:27:18;;;;;;;17.88;7.53;;;;;;;6.48;100.00;102869.19;5240798;28;20520;-72
2023/02/13 06:29:49;;;;;;;17.58;7.85;;;;;;;6.56;100.00;102874.50;5242686;28;20372;-73
2023/02/13 06:32:19;;;;;;;19.73;7.47;;;;;;;6.40;100.00;102882.88;5244148;28;20032;-72
2023/02/13 06:34:49;;;;;;;16.38;7.70;;;;;;;6.43;100.00;102881.19;5244164;28;20070;-74
2023/02/13 06:37:19;;;;;;;19.23;7.93;;;;;;;6.44;100.00;102890.72;5236918;28;20063;-73
2023/02/13 06:39:50;;;;;;;19.42;7.90;;;;;;;6.50;100.00;102892.56;5240497;28;20029;-74
2023/02/13 06:42:20;;;;;;;17.05;7.38;;;;;;;6.51;100.00;102894.31;5243522;28;20063;-74
2023/02/13 06:44:51;;;;;;;17.77;7.68;;;;;;;6.49;100.00;102894.31;5243086;28;20013;-73
2023/02/13 06:47:21;;;;;;;20.48;7.97;;;;;;;6.47;100.00;102902.91;5243559;28;20035;-73
2023/02/13 06:49:51;;;;;;;18.48;7.75;;;;;;;6.50;100.00;102898.66;5243538;28;20063;-72
2023/02/13 06:52:22;;;;;;;18.13;7.68;;;;;;;6.59;100.00;102905.75;5242980;28;20241;-72
2023/02/13 06:54:52;;;;;;;17.63;7.43;;;;;;;6.62;100.00;102898.00;5237850;28;20024;-73
2023/02/13 06:57:22;;;;;;;16.38;6.95;;;;;;;6.72;100.00;102894.69;5242081;28;20036;-71
2023/02/13 06:59:52;;;;;;;16.77;7.18;;;;;;;6.65;100.00;102895.44;5243804;28;20028;-71
2023/02/13 07:02:23;;;;;;;17.75;7.65;;;;;;;6.81;100.00;102892.25;5243912;28;20558;-74
2023/02/13 07:04:53;;;;;;;17.80;7.55;;;;;;;6.84;100.00;102895.78;5242843;28;20024;-73
2023/02/13 07:07:23;;;;;;;16.75;7.25;;;;;;;6.91;100.00;102891.56;5239266;28;20067;-73
2023/02/13 07:09:54;;;;;;;19.20;8.15;;;;;;;7.05;100.00;102900.44;5239060;28;20489;-73
2023/02/13 07:12:24;;;;;;;17.63;7.47;;;;;;;6.95;100.00;102906.38;5233777;28;20470;-74
2023/02/13 07:14:54;;;;;;;16.65;7.00;;;;;;;7.04;100.00;102896.97;5235071;28;20012;-72
2023/02/13 07:17:26;;;;;;;19.05;7.63;;;;;;;7.03;100.00;102899.53;5231963;28;20121;-73
2023/02/13 07:19:56;;;;;;;17.50;7.38;;;;;;;7.06;100.00;102902.19;5241033;28;20497;-73
2023/02/13 07:22:27;;;;;;;19.40;7.68;;;;;;;7.02;100.00;102897.81;5242790;28;20218;-73
2023/02/13 07:24:58;;;;;;;17.00;6.78;;;;;;;7.08;100.00;102903.97;5238505;28;20496;-73
2023/02/13 07:27:29;;;;;;;15.35;7.05;;;;;;;7.01;100.00;102898.66;5243404;28;20036;-73
2023/02/13 07:29:59;;;;;;;17.63;7.03;;;;;;;7.05;100.00;102901.34;5244110;28;20056;-74
2023/02/13 07:32:29;;;;;;;15.63;6.82;;;;;;;6.95;100.00;102899.41;5243617;28;20029;-73
2023/02/13 07:34:59;;;;;;;15.32;6.55;;;;;;;6.96;100.00;102902.91;5242347;28;20547;-73
2023/02/13 07:37:31;;;;;;;17.15;6.63;;;;;;;7.01;100.00;102912.53;5243695;28;20086;-73
2023/02/13 07:40:02;;;;;;;15.82;6.57;;;;;;;7.10;100.00;102904.00;5243409;28;20107;-73
2023/02/13 07:42:33;;;;;;;13.05;6.20;;;;;;;7.00;100.00;102917.69;5231002;28;20212;-75
2023/02/13 07:45:05;;;;;;;15.60;7.20;;;;;;;6.98;100.00;102927.19;5239479;28;20452;-73
2023/02/13 07:47:35;;;;;;;14.90;6.30;;;;;;;6.99;100.00;102919.44;5243502;28;20055;-73
2023/02/13 07:50:07;;;;;;;12.20;5.60;;;;;;;7.07;100.00;102916.97;5243476;28;20068;-74
2023/02/13 07:52:37;;;;;;;13.77;5.82;;;;;;;7.09;100.00;102915.25;5240828;28;20584;-73
2023/02/13 07:55:10;;;;;;;11.80;5.30;;;;;;;7.16;100.00;102914.50;5235772;28;20029;-75
2023/02/13 07:57:40;;;;;;;12.52;5.25;;;;;;;7.31;100.00;102916.47;5242913;28;20599;-73
2023/02/13 08:00:11;;;;;;;11.57;5.50;;;;;;;7.36;100.00;102925.22;5240013;28;20115;-74
2023/02/13 08:02:42;;;;;;;14.98;5.88;;;;;;;7.24;100.00;102923.31;5240856;28;20544;-73
2023/02/13 08:05:13;;;;;;;13.80;5.85;;;;;;;7.25;100.00;102925.06;5237598;28;20035;-72
2023/02/13 08:07:43;;;;;;;10.70;5.15;;;;;;;7.32;100.00;102923.44;5239952;28;20516;-73
2023/02/13 08:13:04;;;;;;;11.65;5.18;;;;;;;7.37;100.00;102923.50;5234705;28;20397;-74
2023/02/13 08:15:34;;;;;;;10.98;5.40;;;;;;;7.32;100.00;102923.44;5228107;28;20115;-74
2023/02/13 08:18:05;;;;;;;14.85;6.10;;;;;;;7.48;100.00;102924.53;5242765;28;20115;-71
2023/02/13 08:20:35;;;;;;;12.02;5.55;;;;;;;7.36;100.00;102933.03;5242780;28;20107;-73
2023/02/13 08:23:08;;;;;;;10.20;5.05;;;;;;;7.24;100.00;102937.16;5240564;28;20029;-74
2023/02/13 08:25:39;;;;;;;11.68;5.82;;;;;;;7.25;100.00;102936.31;5233844;28;20024;-73
2023/02/13 08:28:09;;;;;;;12.15;5.82;;;;;;;7.26;100.00;102937.22;5242802;28;20157;-72
2023/02/13 08:30:40;;;;;;;10.15;5.07;;;;;;;7.29;100.00;102939.00;5242953;28;20489;-72
2023/02/13 08:33:10;;;;;;;12.38;5.95;;;;;;;7.31;100.00;102937.28;5242639;28;20131;-75
2023/02/13 08:35:40;;;;;;;12.52;5.75;;;;;;;7.38;100.00;102933.06;5233616;28;20111;-73
2023/02/13 08:38:10;;;;;;;10.73;5.20;;;;;;;7.37;100.00;102929.56;5240011;28;20032;-73
2023/02/13 08:40:41;;;;;;;13.35;5.93;;;;;;;7.30;100.00;102932.06;5240524;28;20402;-74
2023/02/13 08:43:11;;;;;;;15.15;5.90;;;;;;;7.35;100.00;102928.69;5242320;28;20111;-73
2023/02/13 08:45:41;;;;;;;10.40;5.22;;;;;;;7.43;100.00;102934.88;5242080;28;20028;-73
2023/02/13 08:48:11;;;;;;;10.57;5.00;;;;;;;7.35;100.00;102938.22;5241973;28;20038;-73
2023/02/13 08:50:42;;;;;;;12.43;5.35;;;;;;;7.43;100.00;102934.88;5242124;28;20228;-72
2023/02/13 08:53:12;;;;;;;11.15;5.25;;;;;;;7.49;100.00;102937.56;5239698;28;20100;-73
2023/02/13 08:55:50;;;;;;;13.38;5.90;;;;;;;7.57;100.00;102932.47;5234299;28;20021;-73
2023/02/13 08:58:21;;;;;;;10.85;5.65;;;;;;;7.56;100.00;102928.97;5240165;28;20089;-73
2023/02/13 09:00:51;;;;;;;10.27;5.28;;;;;;;7.61;100.00;102934.25;5240707;28;20501;-73
2023/02/13 09:03:22;;;;;;;9.73;5.18;;;;;;;7.57;100.00;102930.75;5237691;28;20482;-73
2023/02/13 09:05:52;;;;;;;11.55;4.88;;;;;;;7.60;100.00;102936.00;5234350;28;20401;-74
2023/02/13 09:08:23;;;;;;;8.90;4.72;;;;;;;7.62;100.00;102938.59;5234465;28;20028;-75
2023/02/13 09:10:59;;;;;;;9.35;4.47;;;;;;;7.77;100.00;102936.22;5232277;28;20031;-73
2023/02/13 09:13:32;;;;;;;10.73;5.22;;;;;;;7.69;100.00;102949.13;5241863;28;20509;-73
2023/02/13 09:16:04;;;;;;;9.18;4.55;;;;;;;7.64;100.00;102937.78;5235195;28;20040;-73
2023/02/13 09:18:35;;;;;;;9.88;4.93;;;;;;;7.57;100.00;102943.78;5223479;28;20032;-73
2023/02/13 09:21:07;;;;;;;10.10;5.20;;;;;;;7.73;100.00;102937.03;5234131;28;20028;-72
2023/02/13 09:23:39;;;;;;;12.38;5.82;;;;;;;7.66;100.00;102941.28;5236639;28;20459;-72
2023/02/13 09:26:11;;;;;;;8.88;4.45;;;;;;;7.70;100.00;102937.88;5234071;28;20040;-72
2023/02/13 09:28:42;;;;;;;8.32;4.38;;;;;;;7.61;100.00;102929.94;5236201;28;20029;-73
2023/02/13 09:31:16;;;;;;;8.00;4.32;;;;;;;7.69;100.00;102941.31;5231514;28;20024;-73
2023/02/13 09:33:47;;;;;;;8.95;4.40;;;;;;;7.75;100.00;102938.81;5233799;28;20031;-72
2023/02/13 09:36:21;;;;;;;7.65;4.05;;;;;;;7.75;100.00;102933.63;5241238;28;20028;-72
2023/02/13 09:38:53;;;;;;;13.55;4.40;;;;;;;7.77;100.00;102931.91;5241220;28;20410;-73
2023/02/13 09:41:31;;;;;;;7.90;4.00;;;;;;;7.86;100.00;102939.81;5234508;28;20508;-73
2023/02/13 09:44:09;;;;;;;7.90;3.35;;;;;;;7.86;100.00;102937.22;5236055;28;20044;-72
2023/02/13 09:46:42;;;;;;;5.97;2.92;;;;;;;7.87;100.00;102936.34;5234011;28;20028;-73
2023/02/13 09:49:18;;;;;;;3.88;2.28;;;;;;;7.95;100.00;102936.47;5232853;28;20071;-73
2023/02/13 09:51:55;;;;;;;5.72;2.60;;;;;;;7.86;100.00;102938.97;5235199;28;20028;-73
2023/02/13 09:54:27;;;;;;;6.00;2.60;;;;;;;7.84;100.00;102944.13;5231575;28;20045;-73
2023/02/13 09:57:20;;;;;;;4.80;2.20;;;;;;;8.02;100.00;102941.78;5244068;28;20025;-72
2023/02/13 10:00:22;;;;;;;4.20;2.03;;;;;;;7.89;100.00;102939.84;5222945;28;20044;-72
2023/02/13 10:03:00;;;;;;;4.57;2.08;;;;;;;7.85;100.00;102937.22;5230731;28;20020;-73
2023/02/13 10:05:38;;;;;;;3.40;2.00;;;;;;;7.75;100.00;102945.75;5231563;28;20074;-73
2023/02/13 10:08:11;;;;;;;5.40;2.08;;;;;;;7.74;100.00;102950.06;5236982;28;20178;-73
2023/02/13 10:10:58;;;;;;;4.00;2.15;;;;;;;7.73;100.00;102950.91;5231270;28;20390;-73
2023/02/13 10:13:47;;;;;;;3.40;1.92;;;;;;;7.86;100.00;102949.38;5231818;28;20553;-72
2023/02/13 10:16:43;;;;;;;3.65;1.90;;;;;;;7.88;100.00;102950.25;5235697;28;20510;-72
2023/02/13 10:19:25;;;;;;;5.22;1.90;;;;;;;7.97;100.00;102955.59;5238571;28;20029;-72
2023/02/13 10:22:05;;;;;;;3.55;1.77;;;;;;;7.93;100.00;102957.28;5230793;28;20051;-70
2023/02/13 10:24:42;;;;;;;3.10;1.75;;;;;;;8.12;100.00;102961.00;5233133;28;20021;-73
2023/02/13 10:27:29;;;;;;;3.70;1.77;;;;;;;7.98;100.00;102954.72;5241789;28;20067;-74
2023/02/13 10:30:34;;;;;;;3.05;1.55;;;;;;;8.25;100.00;102950.75;5242775;28;20051;-73
2023/02/13 10:33:27;;;;;;;3.47;2.00;;;;;;;8.03;100.00;102956.53;5235379;28;20032;-73
2023/02/13 10:36:14;;;;;;;3.42;1.60;;;;;;;8.15;100.00;102948.00;5234331;28;20021;-73
2023/02/13 10:38:55;;;;;;;3.25;1.27;;;;;;;8.13;100.00;102950.59;5233075;28;20115;-73
2023/02/13 10:42:15;;;;;;;3.22;1.30;;;;;;;8.28;100.00;102952.53;5238657;28;20035;-73
2023/02/13 10:44:45;;;;;;;1.58;1.10;;;;;;;8.22;100.00;102949.88;5189813;28;20068;-73
2023/02/13 10:47:32;;;;;;;1.35;0.88;;;;;;;8.35;100.00;102946.56;5238545;28;20295;-74
2023/02/13 10:50:18;;;;;;;1.70;0.90;;;;;;;8.25;100.00;102945.56;5228740;28;20402;-74
2023/02/13 10:52:54;;;;;;;3.85;1.38;;;;;;;8.05;100.00;102952.22;5230122;28;20113;-72
2023/02/13 10:55:41;;;;;;;4.10;1.30;;;;;;;8.02;100.00;102954.78;5237868;28;20601;-72
2023/02/13 10:58:14;;;;;;;2.38;1.10;;;;;;;8.14;100.00;102946.25;5222891;28;20029;-72
2023/02/13 11:00:54;;;;;;;4.63;1.30;;;;;;;8.23;100.00;102942.06;5231916;28;20036;-72
2023/02/13 11:03:27;;;;;;;2.50;0.80;;;;;;;8.28;100.00;102940.41;5231168;28;20075;-72
2023/02/13 11:06:00;;;;;;;2.03;0.77;;;;;;;8.43;100.00;102937.97;5237699;28;20099;-72
2023/02/13 11:08:46;;;;;;;0.80;0.70;;;;;;;8.19;100.00;102940.28;5236520;28;20140;-71
2023/02/13 11:11:36;;;;;;;2.15;0.75;;;;;;;8.32;100.00;102929.16;5231301;28;20025;-71
2023/02/13 11:14:10;;;;;;;2.22;0.80;;;;;;;8.23;100.00;102933.38;5235035;28;20514;-73
2023/02/13 11:17:04;;;;;;;1.83;1.00;;;;;;;8.21;100.00;102937.72;5234242;28;20032;-73
2023/02/13 11:19:38;;;;;;;2.58;1.17;;;;;;;8.36;100.00;102933.53;5235192;28;20032;-71
2023/02/13 11:22:14;;;;;;;2.78;0.88;;;;;;;8.15;100.00;102938.47;5232161;28;20032;-72
2023/02/13 11:24:55;;;;;;;4.63;1.30;;;;;;;8.14;100.00;102936.72;5231106;28;20059;-73
2023/02/13 11:27:37;;;;;;;3.58;1.30;;;;;;;8.24;100.00;102932.53;5240157;28;20115;-72
2023/02/13 11:30:22;;;;;;;5.13;1.67;;;;;;;8.51;100.00;102932.81;5232617;28;20051;-74
2023/02/13 11:33:00;;;;;;;5.85;1.98;;;;;;;8.35;100.00;102933.53;5235904;28;20513;-73
2023/02/13 11:35:35;;;;;;;4.47;1.60;;;;;;;8.57;100.00;102925.94;5242467;28;20115;-73
2023/02/13 11:38:19;;;;;;;3.05;1.20;;;;;;;8.64;100.00;102919.06;5234990;28;20564;-72
2023/02/13 11:41:02;;;;;;;2.05;0.93;;;;;;;8.69;100.00;102923.44;5239899;28;20062;-73
2023/02/13 11:43:52;;;;;;;4.55;1.17;;;;;;;8.68;100.00;102920.81;5236087;28;20032;-73
2023/02/13 11:46:25;;;;;;;3.67;1.15;;;;;;;8.78;100.00;102915.75;5233002;28;20024;-74
2023/02/13 11:49:00;;;;;;;2.38;0.75;;;;;;;8.81;100.00;102915.75;5238980;28;20039;-72
2023/02/13 11:52:01;;;;;;;2.23;0.90;;;;;;;8.83;100.00;102916.63;5237307;28;20115;-72
2023/02/13 11:54:41;;;;;;;3.97;0.95;;;;;;;8.92;100.00;102914.09;5229600;28;20040;-73
2023/02/13 11:57:26;;;;;;;2.17;1.15;;;;;;;8.65;100.00;102916.47;5231860;28;20475;-72
2023/02/13 11:59:58;;;;;;;2.30;1.15;;;;;;;8.73;100.00;102914.78;5225053;28;20036;-71
2023/02/13 12:02:44;;;;;;;2.40;1.10;;;;;;;8.70;100.00;102922.59;5233974;28;20054;-72
2023/02/13 12:05:19;;;;;;;2.25;0.98;;;;;;;8.76;100.00;102914.81;5238645;28;20075;-72
2023/02/13 12:07:49;;;;;;;2.00;1.00;;;;;;;8.70;100.00;102904.34;5241265;28;20060;-72
2023/02/13 12:10:29;;;;;;;1.73;1.00;;;;;;;8.79;100.00;102900.94;5232096;28;20517;-73
2023/02/13 12:13:28;;;;;;;3.97;1.48;;;;;;;8.74;100.00;102900.03;5234135;28;20115;-72
2023/02/13 12:16:03;;;;;;;9.30;3.40;;;;;;;8.77;100.00;102893.13;5237158;28;20048;-72
2023/02/13 12:18:40;;;;;;;5.30;2.20;;;;;;;8.61;100.00;102901.66;5241677;28;20490;-72
2023/02/13 12:21:43;;;;;;;5.95;2.10;;;;;;;8.89;100.00;102895.81;5228744;28;20033;-72
2023/02/13 12:24:19;;;;;;;5.88;2.25;;;;;;;8.99;100.00;102887.22;5227226;28;20019;-72
2023/02/13 12:26:57;;;;;;;4.35;1.90;;;;;;;8.94;100.00;102888.94;5241128;28;20041;-72
2023/02/13 12:30:06;;;;;;;5.43;2.40;;;;;;;8.85;100.00;102888.84;5237818;28;20537;-72
2023/02/13 12:32:56;;;;;;;4.97;2.05;;;;;;;8.94;100.00;102888.03;5228131;28;20035;-72
2023/02/13 12:35:43;;;;;;;3.92;2.00;;;;;;;9.07;100.00;102875.09;5239795;28;20020;-72
2023/02/13 12:38:51;;;;;;;7.55;2.63;;;;;;;9.27;100.00;102878.72;5235186;28;20020;-73
2023/02/13 12:42:06;;;;;;;4.00;1.90;;;;;;;9.15;100.00;102874.28;5232868;28;20422;-72